createdAt,value
2018-05-07T00:02:18.689Z,45.67
2018-05-07T00:04:46.778Z,45.95
2018-05-07T00:07:15.370Z,46.31
2018-05-07T00:09:43.495Z,46.39
2018-05-07T00:12:11.516Z,46.69
2018-05-07T00:14:39.690Z,46.84
2018-05-07T00:17:07.753Z,46.85
2018-05-07T00:19:35.852Z,46.89
2018-05-07T00:22:03.939Z,46.97
2018-05-07T00:24:32.022Z,46.67
2018-05-07T00:27:00.122Z,46.96
2018-05-07T00:29:33.826Z,46.85
2018-05-07T00:32:01.943Z,46.84
2018-05-07T00:34:30.021Z,47.09
2018-05-07T00:36:58.158Z,47.07
2018-05-07T00:39:26.274Z,47.13
2018-05-07T00:41:59.926Z,47.13
2018-05-07T00:44:28.007Z,47.16
2018-05-07T00:46:56.114Z,47.18
2018-05-07T00:49:24.218Z,47.35
2018-05-07T00:51:52.291Z,47.19
2018-05-07T00:54:20.453Z,47.11
2018-05-07T00:56:48.964Z,47.01
2018-05-07T00:59:17.014Z,47.27
2018-05-07T01:01:45.101Z,47.57
2018-05-07T01:04:13.203Z,47.47
2018-05-07T01:06:41.301Z,47.60
2018-05-07T01:09:09.391Z,47.45
2018-05-07T01:11:37.475Z,47.67
2018-05-07T01:14:05.554Z,48.11
2018-05-07T01:16:33.691Z,47.97
2018-05-07T01:19:01.821Z,47.54
2018-05-07T01:21:29.886Z,48.04
2018-05-07T01:23:58.244Z,48.87
2018-05-07T01:26:27.123Z,48.79
2018-05-07T01:28:56.068Z,48.75
2018-05-07T01:31:24.159Z,48.36
2018-05-07T01:33:53.202Z,48.79
2018-05-07T01:36:21.350Z,49.02
2018-05-07T01:38:49.408Z,48.54
2018-05-07T01:41:17.507Z,48.56
2018-05-07T01:43:51.420Z,48.77
2018-05-07T01:46:19.503Z,49.01
2018-05-07T01:48:47.587Z,48.77
2018-05-07T01:51:15.714Z,48.47
2018-05-07T01:53:43.853Z,48.90
2018-05-07T01:56:11.903Z,49.27
2018-05-07T01:58:40.011Z,48.86
2018-05-07T02:01:08.093Z,48.77
2018-05-07T02:03:37.003Z,48.68
2018-05-07T02:06:05.308Z,48.81
2018-05-07T02:08:33.368Z,48.85
2018-05-07T02:11:01.455Z,48.71
2018-05-07T02:13:29.540Z,48.57
2018-05-07T02:15:57.693Z,48.63
2018-05-07T02:31:25.823Z,49.57
2018-05-07T02:33:54.555Z,49.41
2018-05-07T02:36:22.639Z,49.12
2018-05-07T02:38:50.879Z,49.30
2018-05-07T02:41:18.891Z,49.25
2018-05-07T02:43:46.983Z,49.24
2018-05-07T02:46:15.105Z,49.74
2018-05-07T02:48:43.195Z,49.59
2018-05-07T02:51:11.295Z,49.78
2018-05-07T02:53:39.365Z,49.36
2018-05-07T02:56:07.463Z,49.35
2018-05-07T02:58:35.567Z,49.41
2018-05-07T03:01:03.651Z,49.69
2018-05-07T03:03:32.467Z,49.84
2018-05-07T03:06:00.551Z,49.62
2018-05-07T03:08:28.634Z,49.70
2018-05-07T03:10:56.755Z,49.66
2018-05-07T03:13:25.015Z,49.80
2018-05-07T03:15:53.124Z,49.79
2018-05-07T03:18:21.219Z,49.97
2018-05-07T03:20:49.291Z,50.30
2018-05-07T03:23:17.379Z,50.12
2018-05-07T03:25:45.464Z,50.14
2018-05-07T03:28:13.559Z,50.40
2018-05-07T03:30:41.679Z,50.79
2018-05-07T03:33:10.662Z,51.26
2018-05-07T03:35:38.751Z,50.55
2018-05-07T03:38:07.588Z,50.79
2018-05-07T03:40:36.519Z,51.36
2018-05-07T03:43:04.557Z,51.18
2018-05-07T03:45:32.638Z,51.69
2018-05-07T03:48:01.359Z,51.29
2018-05-07T03:50:29.439Z,50.78
2018-05-07T03:52:57.531Z,50.79
2018-05-07T03:55:25.629Z,50.84
2018-05-07T03:57:53.751Z,51.03
2018-05-07T04:00:22.729Z,51.25
2018-05-07T04:02:50.827Z,51.53
2018-05-07T04:05:18.939Z,51.53
2018-05-07T04:07:52.725Z,51.65
2018-05-07T04:10:26.707Z,51.67
2018-05-07T04:12:54.793Z,51.94
2018-05-07T04:15:22.947Z,51.74
2018-05-07T04:18:03.787Z,51.70
2018-05-07T04:23:47.537Z,52.04
2018-05-07T04:26:15.641Z,51.88
2018-05-07T04:28:43.935Z,51.71
2018-05-07T04:31:12.063Z,51.67
2018-05-07T04:33:40.147Z,51.70
2018-05-07T04:36:09.174Z,51.83
2018-05-07T04:38:37.328Z,52.19
2018-05-07T04:41:05.331Z,51.60
2018-05-07T04:43:33.830Z,51.98
2018-05-07T04:46:01.891Z,52.12
2018-05-07T04:48:30.751Z,52.19
2018-05-07T04:50:59.140Z,52.10
2018-05-07T04:53:27.225Z,52.48
2018-05-07T04:55:55.310Z,51.90
2018-05-07T04:58:23.392Z,51.31
2018-05-07T05:00:51.484Z,51.40
2018-05-07T05:03:19.901Z,51.30
2018-05-07T05:05:48.945Z,51.05
2018-05-07T05:08:17.041Z,51.10
2018-05-07T05:10:45.147Z,51.59
2018-05-07T05:13:13.344Z,51.44
2018-05-07T05:15:41.422Z,51.25
2018-05-07T05:18:09.519Z,51.45
2018-05-07T05:20:37.611Z,51.08
2018-05-07T05:23:05.700Z,51.12
2018-05-07T05:25:34.067Z,51.41
2018-05-07T05:28:08.620Z,51.73
2018-05-07T05:30:36.840Z,51.20
2018-05-07T05:33:04.990Z,51.33
2018-05-07T05:35:33.104Z,51.08
2018-05-07T05:38:01.235Z,51.31
2018-05-07T05:40:29.297Z,51.29
2018-05-07T05:42:57.395Z,51.29
2018-05-07T05:45:25.476Z,51.09
2018-05-07T05:47:53.567Z,51.09
2018-05-07T05:50:21.671Z,51.56
2018-05-07T05:52:49.769Z,52.08
2018-05-07T05:55:17.872Z,50.81
2018-05-07T05:57:45.952Z,50.39
2018-05-07T06:00:14.074Z,50.81
2018-05-07T06:02:42.168Z,51.07
2018-05-07T06:05:11.050Z,50.31
2018-05-07T06:07:39.859Z,50.08
2018-05-07T06:10:08.233Z,50.03
2018-05-07T06:12:36.630Z,50.32
2018-05-07T06:15:04.738Z,50.09
2018-05-07T06:17:32.842Z,50.78
2018-05-07T06:20:00.937Z,50.80
2018-05-07T06:22:29.017Z,49.73
2018-05-07T06:24:57.129Z,50.25
2018-05-07T06:27:25.315Z,49.19
2018-05-07T06:29:53.328Z,49.63
2018-05-07T06:32:21.449Z,49.86
2018-05-07T06:34:49.523Z,49.08
2018-05-07T06:37:17.609Z,49.33
2018-05-07T06:39:45.753Z,49.50
2018-05-07T06:42:13.840Z,50.13
2018-05-07T06:44:42.795Z,50.00
2018-05-07T06:47:10.891Z,49.12
2018-05-07T06:49:39.757Z,49.50
2018-05-07T06:52:08.704Z,48.69
2018-05-07T06:54:36.782Z,47.92
2018-05-07T06:57:04.874Z,46.69
2018-05-07T06:59:33.853Z,46.67
2018-05-07T07:02:01.961Z,44.75
2018-05-07T07:04:30.384Z,43.75
2018-05-07T07:06:58.488Z,43.22
2018-05-07T07:09:26.577Z,42.09
2018-05-07T07:11:54.754Z,39.92
2018-05-07T07:14:22.832Z,39.33
2018-05-07T07:16:50.932Z,38.06
2018-05-07T07:19:19.019Z,38.65
2018-05-07T07:21:52.658Z,38.27
2018-05-07T07:24:20.695Z,37.94
2018-05-07T07:26:48.780Z,36.92
2018-05-07T07:29:17.856Z,35.91
2018-05-07T07:31:45.964Z,35.75
2018-05-07T07:34:16.055Z,35.03
2018-05-07T07:36:44.135Z,35.95
2018-05-07T07:39:12.233Z,35.93
2018-05-07T07:41:40.570Z,36.58
2018-05-07T07:44:08.740Z,38.10
2018-05-07T07:46:37.123Z,39.26
2018-05-07T07:49:05.280Z,39.15
2018-05-07T07:51:34.231Z,40.07
2018-05-07T07:54:06.345Z,39.81
2018-05-07T07:56:34.477Z,40.11
2018-05-07T07:59:02.542Z,41.21
2018-05-07T08:14:30.643Z,41.70
2018-05-07T08:16:58.735Z,40.29
2018-05-07T08:19:26.816Z,40.61
2018-05-07T08:21:55.332Z,40.75
2018-05-07T08:24:23.430Z,40.97
2018-05-07T08:26:51.517Z,41.65
2018-05-07T08:29:19.702Z,40.92
2018-05-07T08:31:47.777Z,41.51
2018-05-07T08:34:16.710Z,41.61
2018-05-07T08:36:44.946Z,40.75
2018-05-07T08:39:13.043Z,41.29
2018-05-07T08:41:41.116Z,41.38
2018-05-07T08:44:09.227Z,41.19
2018-05-07T08:46:37.314Z,40.55
2018-05-07T08:49:05.407Z,40.75
2018-05-07T08:51:33.697Z,41.00
2018-05-07T08:54:01.795Z,41.65
2018-05-07T08:56:29.858Z,40.29
2018-05-07T08:58:58.162Z,40.97
2018-05-07T09:01:26.291Z,41.00
2018-05-07T09:03:54.359Z,42.61
2018-05-07T09:06:22.465Z,42.00
2018-05-07T09:08:50.575Z,40.40
2018-05-07T09:11:18.664Z,40.46
2018-05-07T09:13:46.752Z,41.79
2018-05-07T09:16:14.859Z,41.64
2018-05-07T09:18:42.935Z,41.43
2018-05-07T09:21:11.044Z,41.95
2018-05-07T09:23:39.192Z,41.90
2018-05-07T09:26:07.267Z,41.76
2018-05-07T09:28:35.356Z,41.29
2018-05-07T09:31:03.467Z,41.96
2018-05-07T09:33:31.599Z,42.27
2018-05-07T09:36:00.630Z,41.00
2018-05-07T09:38:28.775Z,41.30
2018-05-07T09:40:56.872Z,42.34
2018-05-07T09:43:24.963Z,42.95
2018-05-07T09:45:53.076Z,42.83
2018-05-07T09:48:21.204Z,42.76
2018-05-07T09:50:49.313Z,42.11
2018-05-07T09:53:17.667Z,42.16
2018-05-07T09:55:45.837Z,41.47
2018-05-07T09:58:13.851Z,41.20
2018-05-07T10:00:41.990Z,41.46
2018-05-07T10:03:10.089Z,41.71
2018-05-07T10:05:38.183Z,42.02
2018-05-07T10:08:06.287Z,40.03
2018-05-07T10:10:34.378Z,40.32
2018-05-07T10:13:02.486Z,39.94
2018-05-07T10:15:30.587Z,40.34
2018-05-07T10:17:58.706Z,40.97
2018-05-07T10:20:26.816Z,42.05
2018-05-07T10:22:54.902Z,41.96
2018-05-07T10:25:22.991Z,41.66
2018-05-07T10:40:51.182Z,42.88
2018-05-07T10:43:19.248Z,42.08
2018-05-07T10:45:47.369Z,40.69
2018-05-07T10:48:15.454Z,39.28
2018-05-07T10:50:43.542Z,39.90
2018-05-07T10:53:11.663Z,39.97
2018-05-07T10:55:40.074Z,39.21
2018-05-07T10:58:08.160Z,39.64
2018-05-07T11:00:36.256Z,38.73
2018-05-07T11:03:04.354Z,38.12
2018-05-07T11:05:33.454Z,40.21
2018-05-07T11:08:01.542Z,40.95
2018-05-07T11:10:29.640Z,39.27
2018-05-07T11:12:57.734Z,39.91
2018-05-07T11:15:25.854Z,40.05
2018-05-07T11:17:54.178Z,38.18
2018-05-07T11:20:27.853Z,37.76
2018-05-07T11:22:55.982Z,37.57
2018-05-07T11:25:24.058Z,36.94
2018-05-07T11:27:52.170Z,36.23
2018-05-07T11:30:20.263Z,37.59
2018-05-07T11:32:48.338Z,37.89
2018-05-07T11:35:16.423Z,38.42
2018-05-07T11:37:44.538Z,36.45
2018-05-07T11:40:12.676Z,38.43
2018-05-07T11:42:40.758Z,37.50
2018-05-07T11:45:08.869Z,38.78
2018-05-07T11:47:36.999Z,38.80
2018-05-07T11:50:05.038Z,39.14
2018-05-07T11:52:33.156Z,37.04
2018-05-07T11:55:01.269Z,37.14
2018-05-07T11:57:29.378Z,36.24
2018-05-07T11:59:57.518Z,36.82
2018-05-07T12:02:25.610Z,37.23
2018-05-07T12:04:53.690Z,37.23
2018-05-07T12:07:21.812Z,37.05
2018-05-07T12:09:49.906Z,36.75
2018-05-07T12:12:17.987Z,36.32
2018-05-07T12:14:46.455Z,37.52
2018-05-07T12:17:15.560Z,37.96
2018-05-07T12:19:43.623Z,37.73
2018-05-07T12:22:11.764Z,37.37
2018-05-07T12:24:39.882Z,35.96
2018-05-07T12:27:07.979Z,35.53
2018-05-07T12:29:36.188Z,35.94
2018-05-07T12:32:04.290Z,37.04
2018-05-07T12:34:32.708Z,36.66
2018-05-07T12:37:00.803Z,36.23
2018-05-07T12:39:29.077Z,35.46
2018-05-07T12:41:57.153Z,35.53
2018-05-07T12:44:25.602Z,35.80
2018-05-07T12:46:53.710Z,36.81
2018-05-07T12:49:21.870Z,35.17
2018-05-07T12:51:49.951Z,35.39
2018-05-07T12:54:18.051Z,36.13
2018-05-07T12:56:51.131Z,35.88
2018-05-07T12:59:19.221Z,34.82
2018-05-07T13:01:47.695Z,34.05
2018-05-07T13:04:16.484Z,33.75
2018-05-07T13:06:46.411Z,34.12
2018-05-07T13:09:14.467Z,34.01
2018-05-07T13:11:42.674Z,34.33
2018-05-07T13:14:11.059Z,34.10
2018-05-07T13:16:39.145Z,33.79
2018-05-07T13:19:07.265Z,33.40
2018-05-07T13:21:35.359Z,33.70
2018-05-07T13:24:03.441Z,34.29
2018-05-07T13:26:31.535Z,34.34
2018-05-07T13:28:59.627Z,34.99
2018-05-07T13:31:27.727Z,34.46
2018-05-07T13:34:01.295Z,33.94
2018-05-07T13:36:29.406Z,33.99
2018-05-07T13:38:57.490Z,34.07
2018-05-07T13:41:25.603Z,34.14
2018-05-07T13:43:53.704Z,33.40
2018-05-07T13:46:21.781Z,33.58
2018-05-07T13:48:49.859Z,33.63
2018-05-07T13:51:17.993Z,34.01
2018-05-07T13:53:46.065Z,33.60
2018-05-07T13:56:14.141Z,33.54
2018-05-07T13:58:42.252Z,33.30
2018-05-07T14:01:10.660Z,33.53
2018-05-07T14:03:38.789Z,32.58
2018-05-07T14:06:06.959Z,32.92
2018-05-07T14:08:35.167Z,33.32
2018-05-07T14:11:03.163Z,34.25
2018-05-07T14:13:31.359Z,33.07
2018-05-07T14:15:59.432Z,33.16
2018-05-07T14:18:27.520Z,32.16
2018-05-07T14:20:55.668Z,33.44
2018-05-07T14:23:23.786Z,32.95
2018-05-07T14:25:51.848Z,32.93
2018-05-07T14:28:19.963Z,33.30
2018-05-07T14:30:48.145Z,33.03
2018-05-07T14:33:16.215Z,32.89
2018-05-07T14:35:44.315Z,33.20
2018-05-07T14:38:17.870Z,33.72
2018-05-07T14:40:46.016Z,34.01
2018-05-07T14:43:14.112Z,33.93
2018-05-07T14:45:42.203Z,34.24
2018-05-07T14:48:10.336Z,34.90
2018-05-07T14:50:38.436Z,34.46
2018-05-07T15:06:06.598Z,34.10
2018-05-07T15:08:34.672Z,34.49
2018-05-07T15:11:02.791Z,34.75
2018-05-07T15:13:31.616Z,34.75
2018-05-07T15:15:59.776Z,34.39
2018-05-07T15:18:27.863Z,34.46
2018-05-07T15:20:56.015Z,34.26
2018-05-07T15:23:24.238Z,34.40
2018-05-07T15:25:52.284Z,34.23
2018-05-07T15:28:20.405Z,34.62
2018-05-07T15:30:48.593Z,33.91
2018-05-07T15:33:16.764Z,33.65
2018-05-07T15:35:44.863Z,33.72
2018-05-07T15:38:12.964Z,33.03
2018-05-07T15:40:41.075Z,33.31
2018-05-07T15:43:09.179Z,32.60
2018-05-07T15:45:37.283Z,33.39
2018-05-07T15:48:05.412Z,32.12
2018-05-07T15:50:34.274Z,32.46
2018-05-07T15:53:02.735Z,32.92
2018-05-07T15:55:30.845Z,33.24
2018-05-07T15:57:59.749Z,32.45
2018-05-07T16:00:27.883Z,32.25
2018-05-07T16:15:56.040Z,32.25
2018-05-07T16:18:24.795Z,32.31
2018-05-07T16:20:53.722Z,32.55
2018-05-07T16:23:22.088Z,32.13
2018-05-07T16:25:49.990Z,32.22
2018-05-07T16:28:23.658Z,32.51
2018-05-07T16:30:57.351Z,32.46
2018-05-07T16:33:25.407Z,32.22
2018-05-07T16:35:53.557Z,32.09
2018-05-07T16:38:21.651Z,31.83
2018-05-07T16:40:49.779Z,32.18
2018-05-07T16:43:17.912Z,32.35
2018-05-07T16:45:46.004Z,31.93
2018-05-07T16:48:14.122Z,31.91
2018-05-07T16:50:42.284Z,31.93
2018-05-07T16:53:10.383Z,32.24
2018-05-07T16:55:38.481Z,33.32
2018-05-07T16:58:06.596Z,33.86
2018-05-07T17:00:35.327Z,32.25
2018-05-07T17:03:03.425Z,31.61
2018-05-07T17:05:31.544Z,31.62
2018-05-07T17:07:59.632Z,31.80
2018-05-07T17:10:27.911Z,31.56
2018-05-07T17:12:56.791Z,31.40
2018-05-07T17:15:30.536Z,31.61
2018-05-07T17:18:04.131Z,31.96
2018-05-07T17:20:32.239Z,31.95
2018-05-07T17:23:00.327Z,31.74
2018-05-07T17:25:28.416Z,30.86
2018-05-07T17:27:56.708Z,31.17
2018-05-07T17:30:24.800Z,31.60
2018-05-07T17:32:52.999Z,32.43
2018-05-07T17:35:21.103Z,33.47
2018-05-07T17:37:49.252Z,34.14
2018-05-07T17:40:17.738Z,33.95
2018-05-07T17:42:45.919Z,34.25
2018-05-07T17:45:25.759Z,34.34
2018-05-07T17:48:05.918Z,34.71
2018-05-07T17:50:33.961Z,34.86
2018-05-07T17:53:02.077Z,35.01
2018-05-07T17:55:30.276Z,35.08
2018-05-07T17:57:58.356Z,34.56
2018-05-07T18:00:26.478Z,34.23
2018-05-07T18:02:54.575Z,33.79
2018-05-07T18:05:28.138Z,33.63
2018-05-07T18:07:56.249Z,33.74
2018-05-07T18:10:25.449Z,33.62
2018-05-07T18:12:54.008Z,33.72
2018-05-07T18:15:22.182Z,33.95
2018-05-07T18:17:51.193Z,33.94
2018-05-07T18:20:19.258Z,34.32
2018-05-07T18:22:47.655Z,34.16
2018-05-07T18:25:15.803Z,34.33
2018-05-07T18:27:49.330Z,34.26
2018-05-07T18:30:17.440Z,34.73
2018-05-07T18:32:45.541Z,34.66
2018-05-07T18:35:13.656Z,34.37
2018-05-07T18:37:41.785Z,34.40
2018-05-07T18:40:09.884Z,34.41
2018-05-07T18:42:37.985Z,34.38
2018-05-07T18:45:06.114Z,34.38
2018-05-07T18:47:35.046Z,34.75
2018-05-07T18:50:03.160Z,34.79
2018-05-07T18:52:31.294Z,34.97
2018-05-07T18:54:59.395Z,35.20
2018-05-07T18:57:32.966Z,35.35
2018-05-07T19:00:06.517Z,35.38
2018-05-07T19:02:34.618Z,35.31
2018-05-07T19:05:02.717Z,35.38
2018-05-07T19:07:30.823Z,35.29
2018-05-07T19:09:58.925Z,35.47
2018-05-07T19:12:27.047Z,35.46
2018-05-07T19:14:55.158Z,35.66
2018-05-07T19:17:23.251Z,35.69
2018-05-07T19:19:51.383Z,35.82
2018-05-07T19:22:19.451Z,35.94
2018-05-07T19:24:47.551Z,35.86
2018-05-07T19:27:15.676Z,35.75
2018-05-07T19:29:44.060Z,35.77
2018-05-07T19:32:12.154Z,35.83
2018-05-07T19:34:40.276Z,36.02
2018-05-07T19:37:08.372Z,35.90
2018-05-07T19:39:36.463Z,36.14
2018-05-07T19:42:04.569Z,36.04
2018-05-07T19:44:32.673Z,36.06
2018-05-07T19:47:00.763Z,35.80
2018-05-07T19:49:28.863Z,35.85
2018-05-07T19:51:56.963Z,35.85
2018-05-07T19:54:25.056Z,36.02
2018-05-07T19:56:53.892Z,35.95
2018-05-07T19:59:21.998Z,35.81
2018-05-07T20:01:50.088Z,35.83
2018-05-07T20:04:18.208Z,35.98
2018-05-07T20:06:46.308Z,35.80
2018-05-07T20:09:14.451Z,35.66
2018-05-07T20:11:42.511Z,35.73
2018-05-07T20:14:11.322Z,35.88
2018-05-07T20:16:39.415Z,35.71
2018-05-07T20:19:07.516Z,35.87
2018-05-07T20:21:36.540Z,35.68
2018-05-07T20:24:04.620Z,35.66
2018-05-07T20:26:38.376Z,35.75
2018-05-07T20:29:06.522Z,35.62
2018-05-07T20:31:34.616Z,35.62
2018-05-07T20:34:02.753Z,35.54
2018-05-07T20:36:31.665Z,35.41
2018-05-07T20:38:59.788Z,35.30
2018-05-07T20:41:27.911Z,35.20
2018-05-07T20:43:56.042Z,35.18
2018-05-07T20:46:24.128Z,35.42
2018-05-07T20:48:57.752Z,35.27
2018-05-07T20:51:26.172Z,35.70
2018-05-07T20:53:54.274Z,35.41
2018-05-07T20:56:22.462Z,35.64
2018-05-07T20:58:50.553Z,35.52
2018-05-07T21:01:18.791Z,35.75
2018-05-07T21:03:46.789Z,35.94
2018-05-07T21:06:15.199Z,35.87
2018-05-07T21:08:43.286Z,36.17
2018-05-07T21:11:11.406Z,36.20
2018-05-07T21:13:39.516Z,36.53
2018-05-07T21:16:07.627Z,36.92
2018-05-07T21:18:35.732Z,37.23
2018-05-07T21:21:03.822Z,37.59
2018-05-07T21:23:32.796Z,38.02
2018-05-07T21:26:00.888Z,38.86
2018-05-07T21:28:29.180Z,38.33
2018-05-07T21:30:57.313Z,38.45
2018-05-07T21:33:25.419Z,38.62
2018-05-07T21:35:53.523Z,39.03
2018-05-07T21:38:21.671Z,39.69
2018-05-07T21:40:49.796Z,40.12
2018-05-07T21:43:17.910Z,39.64
2018-05-07T21:45:46.026Z,39.72
2018-05-07T21:48:19.631Z,39.91
2018-05-07T21:50:53.356Z,40.00
2018-05-07T21:53:21.460Z,41.00
2018-05-07T21:55:49.563Z,40.84
2018-05-07T21:58:17.678Z,40.53
2018-05-07T22:00:45.844Z,40.63
2018-05-07T22:03:13.996Z,40.75
2018-05-07T22:05:42.085Z,40.86
2018-05-07T22:08:10.199Z,40.92
2018-05-07T22:10:38.296Z,41.53
2018-05-07T22:13:06.396Z,41.13
2018-05-07T22:15:34.581Z,41.53
2018-05-07T22:18:02.659Z,41.90
2018-05-07T22:20:30.752Z,42.06
2018-05-07T22:22:58.867Z,42.27
2018-05-07T22:25:26.969Z,42.09
2018-05-07T22:27:55.070Z,42.43
2018-05-07T22:30:23.168Z,42.24
2018-05-07T22:32:51.270Z,42.41
2018-05-07T22:35:19.992Z,42.51
2018-05-07T22:37:48.108Z,42.91
2018-05-07T22:40:16.235Z,43.25
2018-05-07T22:42:44.538Z,43.30
2018-05-07T22:45:12.690Z,43.14
2018-05-07T22:47:40.801Z,43.33
2018-05-07T22:50:08.892Z,43.94
2018-05-07T22:52:37.050Z,43.94
2018-05-07T22:55:08.142Z,44.05
2018-05-07T22:57:36.239Z,44.26
2018-05-07T23:00:05.246Z,44.10
2018-05-07T23:02:33.345Z,44.15
2018-05-07T23:05:01.530Z,44.31
2018-05-07T23:07:29.559Z,44.44
2018-05-07T23:09:57.651Z,44.56
2018-05-07T23:12:25.783Z,44.74
2018-05-07T23:14:59.337Z,45.57
2018-05-07T23:17:27.433Z,45.21
2018-05-07T23:19:55.550Z,45.49
2018-05-07T23:22:23.690Z,45.43
2018-05-07T23:24:51.811Z,45.19
2018-05-07T23:27:19.904Z,44.78
2018-05-07T23:29:48.003Z,43.91
2018-05-07T23:32:16.140Z,44.62
2018-05-07T23:34:44.230Z,44.36
2018-05-07T23:37:12.322Z,43.67
2018-05-07T23:39:40.430Z,44.24
2018-05-07T23:42:08.536Z,43.83
2018-05-07T23:44:36.635Z,43.28
2018-05-07T23:47:04.751Z,43.56
2018-05-07T23:49:32.831Z,43.17
2018-05-07T23:52:00.923Z,43.66
2018-05-07T23:54:29.025Z,43.82
2018-05-07T23:56:57.147Z,43.80
2018-05-07T23:59:25.273Z,43.90
